Time;durP1;ratioP1;P1;durP2;ratioP2;P2;SDS_P1;SDS_P2;PMS_P1;PMS_P2;Temp;Humidity;BMP_temperature;BMP_pressure;BME280_temperature;BME280_humidity;BME280_pressure;Samples;Min_cycle;Max_cycle;Signal;HPM_P1;HPM_P2
2024/03/22 00:02:17;;;;;;;6.03;2.80;;;11.30;1.00;;;;;;5117003;28;20416;-59
2024/03/22 00:04:43;;;;;;;4.65;2.15;;;11.10;1.00;;;;;;5117433;28;20427;-59
2024/03/22 00:07:09;;;;;;;6.13;2.33;;;11.10;1.00;;;;;;5117846;28;20452;-59
2024/03/22 00:09:35;;;;;;;5.35;2.90;;;11.10;1.00;;;;;;5116364;28;20432;-58
2024/03/22 00:12:03;;;;;;;5.25;2.50;;;11.10;1.00;;;;;;5116945;28;20412;-58
2024/03/22 00:14:29;;;;;;;4.90;2.60;;;11.10;1.00;;;;;;5116740;28;20512;-59
2024/03/22 00:16:56;;;;;;;3.40;2.00;;;11.10;1.00;;;;;;5117592;28;20733;-60
2024/03/22 00:19:24;;;;;;;4.55;2.20;;;11.00;1.00;;;;;;5131949;27;20436;-58
2024/03/22 00:21:51;;;;;;;3.97;2.00;;;11.00;1.00;;;;;;5137702;27;20513;-58
2024/03/22 00:24:17;;;;;;;4.00;2.22;;;10.90;1.00;;;;;;5137057;27;20483;-58
2024/03/22 00:26:44;;;;;;;5.40;2.35;;;10.90;1.00;;;;;;5137634;27;20699;-58
2024/03/22 00:29:09;;;;;;;5.38;2.00;;;10.80;1.00;;;;;;5137122;27;20479;-58
2024/03/22 00:31:36;;;;;;;5.57;2.00;;;10.80;1.00;;;;;;5137094;27;20423;-58
2024/03/22 00:34:02;;;;;;;4.32;2.10;;;10.80;1.00;;;;;;5137483;27;20444;-59
2024/03/22 00:36:31;;;;;;;2.35;1.50;;;10.70;1.00;;;;;;5137479;27;20426;-63
2024/03/22 00:38:57;;;;;;;3.40;1.70;;;10.70;1.00;;;;;;5136956;27;20411;-59
2024/03/22 00:41:24;;;;;;;3.75;2.00;;;10.60;1.00;;;;;;5137577;27;20454;-58
2024/03/22 00:43:50;;;;;;;2.50;1.52;;;10.70;1.00;;;;;;5137457;28;20836;-59
2024/03/22 00:46:17;;;;;;;2.78;1.20;;;10.60;1.00;;;;;;5131319;28;20434;-59
2024/03/22 00:48:42;;;;;;;4.13;1.70;;;10.60;1.00;;;;;;5126094;28;20422;-59
2024/03/22 00:51:09;;;;;;;2.73;1.60;;;10.60;1.00;;;;;;5137145;28;20415;-59
2024/03/22 00:53:37;;;;;;;2.63;1.50;;;10.60;1.00;;;;;;5137178;28;20407;-59
2024/03/22 00:56:04;;;;;;;3.75;1.70;;;10.60;1.00;;;;;;5137498;28;20414;-59
2024/03/22 00:58:30;;;;;;;4.22;1.73;;;10.60;1.00;;;;;;5136997;28;20430;-58
2024/03/22 01:00:57;;;;;;;4.20;2.00;;;10.50;1.00;;;;;;5136924;28;20783;-58
2024/03/22 01:03:23;;;;;;;3.58;2.17;;;10.50;1.00;;;;;;5136655;28;20426;-59
2024/03/22 01:05:50;;;;;;;3.50;1.90;;;10.50;1.00;;;;;;5137032;28;20525;-59
2024/03/22 01:08:16;;;;;;;3.97;1.52;;;10.50;1.00;;;;;;5136621;28;20414;-59
2024/03/22 01:10:44;;;;;;;2.40;1.53;;;10.50;1.00;;;;;;5137196;28;20842;-58
2024/03/22 01:13:10;;;;;;;3.85;1.65;;;10.40;1.00;;;;;;5137330;27;20423;-59
2024/03/22 01:15:37;;;;;;;2.60;1.48;;;10.40;1.00;;;;;;5140441;27;20422;-59
2024/03/22 01:18:04;;;;;;;3.10;1.33;;;10.40;1.00;;;;;;5141122;27;20429;-59
2024/03/22 01:20:31;;;;;;;2.90;1.60;;;10.40;1.00;;;;;;5141050;27;20414;-58
2024/03/22 01:22:58;;;;;;;3.97;1.50;;;10.30;1.00;;;;;;5140735;27;20842;-58
2024/03/22 01:25:25;;;;;;;3.03;1.70;;;10.30;1.00;;;;;;5140976;27;20422;-59
2024/03/22 01:27:53;;;;;;;2.70;1.50;;;10.20;1.00;;;;;;5136170;27;20483;-58
2024/03/22 01:30:20;;;;;;;3.70;1.30;;;10.20;1.00;;;;;;5130156;27;20424;-59
2024/03/22 01:32:46;;;;;;;3.40;1.67;;;10.20;1.00;;;;;;5128633;27;20412;-59
2024/03/22 01:35:13;;;;;;;3.00;1.55;;;10.10;1.00;;;;;;5130839;27;20829;-59
2024/03/22 01:37:40;;;;;;;2.78;1.58;;;10.20;1.00;;;;;;5130167;27;20424;-59
2024/03/22 01:40:08;;;;;;;2.63;1.75;;;10.10;1.00;;;;;;5128677;27;20449;-60
2024/03/22 01:42:35;;;;;;;4.18;1.80;;;10.10;1.00;;;;;;5129976;27;20414;-59
2024/03/22 01:45:03;;;;;;;3.88;1.60;;;10.10;1.00;;;;;;5129843;27;20435;-59
2024/03/22 01:47:30;;;;;;;3.30;1.60;;;10.10;1.00;;;;;;5125227;27;20468;-58
2024/03/22 01:49:57;;;;;;;2.40;1.40;;;10.20;1.00;;;;;;5127850;27;20784;-59
2024/03/22 01:52:24;;;;;;;4.10;1.50;;;10.20;1.00;;;;;;5128329;27;20426;-59
2024/03/22 01:54:50;;;;;;;3.63;1.65;;;10.20;1.00;;;;;;5125871;27;20464;-59
2024/03/22 01:57:17;;;;;;;3.60;1.40;;;10.20;1.00;;;;;;5129756;27;20426;-59
2024/03/22 01:59:43;;;;;;;4.37;1.57;;;10.10;1.00;;;;;;5130236;27;20473;-59
2024/03/22 02:02:12;;;;;;;4.63;2.00;;;10.10;1.00;;;;;;5125111;27;20416;-58
2024/03/22 02:04:38;;;;;;;3.97;2.00;;;10.00;1.00;;;;;;5129045;27;20514;-60
2024/03/22 02:07:05;;;;;;;5.70;2.42;;;10.00;1.00;;;;;;5130296;27;20716;-59
2024/03/22 02:09:31;;;;;;;6.25;2.10;;;10.00;1.00;;;;;;5121220;27;20439;-59
2024/03/22 02:11:58;;;;;;;4.88;2.15;;;9.90;1.00;;;;;;5118874;28;20507;-59
2024/03/22 02:14:26;;;;;;;5.22;1.90;;;9.90;1.00;;;;;;5117948;28;20478;-58
2024/03/22 02:16:52;;;;;;;3.53;1.90;;;9.80;1.00;;;;;;5117564;28;20506;-59
2024/03/22 02:19:20;;;;;;;3.70;2.03;;;9.80;99.90;;;;;;5118404;28;20444;-59
2024/03/22 02:21:46;;;;;;;4.28;1.70;;;9.70;99.90;;;;;;5117880;28;20485;-59
2024/03/22 02:24:15;;;;;;;4.90;1.70;;;9.70;1.00;;;;;;5118302;28;20465;-58
2024/03/22 02:26:41;;;;;;;3.20;1.73;;;9.70;99.90;;;;;;5116159;28;20412;-58
2024/03/22 02:29:08;;;;;;;3.42;1.80;;;9.70;1.00;;;;;;5117700;28;20481;-58
2024/03/22 02:31:34;;;;;;;5.43;2.10;;;9.70;1.00;;;;;;5117828;28;20488;-58
2024/03/22 02:34:01;;;;;;;3.35;2.08;;;9.70;1.00;;;;;;5117878;28;20427;-58
2024/03/22 02:36:27;;;;;;;3.90;1.90;;;9.60;1.00;;;;;;5117825;28;20424;-59
2024/03/22 02:38:55;;;;;;;4.00;2.75;;;9.60;1.00;;;;;;5117783;28;20408;-58
2024/03/22 02:41:22;;;;;;;3.40;1.90;;;9.60;1.00;;;;;;5117931;28;20489;-58
2024/03/22 02:43:49;;;;;;;2.88;1.63;;;9.60;1.00;;;;;;5118033;28;20495;-58
2024/03/22 02:46:15;;;;;;;3.92;2.40;;;9.60;1.00;;;;;;5115122;28;20487;-58
2024/03/22 02:48:42;;;;;;;3.00;1.80;;;9.60;1.00;;;;;;5118305;28;20427;-58
2024/03/22 02:51:08;;;;;;;2.97;1.80;;;9.50;1.00;;;;;;5117070;28;20756;-58
2024/03/22 02:53:35;;;;;;;4.10;2.40;;;9.50;1.00;;;;;;5117917;28;20408;-58
2024/03/22 02:56:01;;;;;;;3.95;1.70;;;9.50;1.00;;;;;;5117891;28;20420;-58
2024/03/22 02:58:30;;;;;;;3.05;2.20;;;9.40;99.90;;;;;;5117900;28;20440;-58
2024/03/22 03:00:55;;;;;;;3.65;2.20;;;9.30;99.90;;;;;;5117934;28;20744;-58
2024/03/22 03:03:23;;;;;;;4.15;2.00;;;9.10;99.90;;;;;;5117602;28;20450;-58
2024/03/22 03:05:48;;;;;;;2.70;1.90;;;9.10;99.90;;;;;;5117349;28;20477;-58
2024/03/22 03:08:15;;;;;;;4.20;1.90;;;9.10;99.90;;;;;;5118258;27;20415;-58
2024/03/22 03:10:41;;;;;;;3.40;1.70;;;9.20;99.90;;;;;;5128311;27;20865;-59
2024/03/22 03:13:08;;;;;;;3.25;1.95;;;9.20;99.90;;;;;;5126976;27;20535;-58
2024/03/22 03:15:36;;;;;;;3.35;1.70;;;9.30;99.90;;;;;;5128226;27;20423;-58
2024/03/22 03:18:03;;;;;;;4.90;2.20;;;9.40;99.90;;;;;;5127200;27;20724;-58
2024/03/22 03:20:29;;;;;;;4.55;2.50;;;9.40;99.90;;;;;;5138452;27;20475;-59
2024/03/22 03:22:59;;;;;;;4.10;1.70;;;9.40;99.90;;;;;;5138922;27;20700;-58
2024/03/22 03:25:25;;;;;;;5.00;2.00;;;9.50;6.90;;;;;;5138481;27;20530;-58
2024/03/22 03:27:52;;;;;;;4.80;1.92;;;9.50;12.00;;;;;;5139164;27;20745;-58
2024/03/22 03:30:18;;;;;;;4.38;2.40;;;9.50;99.90;;;;;;5138125;27;20465;-58
2024/03/22 03:32:47;;;;;;;3.97;2.10;;;9.50;99.90;;;;;;5138461;27;20441;-59
2024/03/22 03:35:13;;;;;;;4.97;1.80;;;9.50;99.90;;;;;;5138230;27;20414;-59
2024/03/22 03:37:40;;;;;;;5.25;2.35;;;9.40;19.20;;;;;;5137970;27;20425;-58
2024/03/22 03:40:07;;;;;;;4.23;2.20;;;9.40;24.50;;;;;;5138420;27;20418;-58
2024/03/22 03:42:34;;;;;;;4.80;2.40;;;9.40;26.70;;;;;;5138513;27;20509;-58
2024/03/22 03:45:00;;;;;;;4.75;2.38;;;9.50;27.10;;;;;;5137951;27;20434;-58
2024/03/22 03:47:27;;;;;;;6.03;2.40;;;9.50;27.10;;;;;;5122448;27;20491;-58
2024/03/22 03:49:54;;;;;;;4.22;2.25;;;9.60;99.90;;;;;;5136794;27;20475;-58
2024/03/22 03:52:21;;;;;;;4.13;2.10;;;9.60;99.90;;;;;;5137436;27;20436;-58
2024/03/22 03:54:47;;;;;;;3.70;2.13;;;9.50;99.90;;;;;;5137389;27;20471;-58
2024/03/22 03:57:14;;;;;;;4.68;2.60;;;9.50;99.90;;;;;;5138004;27;20422;-58
2024/03/22 03:59:40;;;;;;;4.40;2.70;;;9.50;99.90;;;;;;5137557;27;20411;-58
2024/03/22 04:02:07;;;;;;;4.93;2.90;;;9.40;99.90;;;;;;5137944;27;20414;-58
2024/03/22 04:04:33;;;;;;;4.13;2.33;;;9.40;99.90;;;;;;5137849;27;20430;-58
2024/03/22 04:07:02;;;;;;;4.97;2.53;;;9.50;99.90;;;;;;5137296;27;20800;-58
2024/03/22 04:09:28;;;;;;;4.20;2.55;;;9.50;99.90;;;;;;5137664;27;20426;-58
2024/03/22 04:11:58;;;;;;;5.00;2.20;;;9.50;99.90;;;;;;5137491;27;20776;-59
2024/03/22 04:14:24;;;;;;;5.67;2.90;;;9.50;99.90;;;;;;5137655;27;20503;-58
2024/03/22 04:16:51;;;;;;;4.30;2.30;;;9.40;99.90;;;;;;5138162;27;20474;-59
2024/03/22 04:19:17;;;;;;;4.45;2.50;;;9.40;99.90;;;;;;5137008;27;20423;-58
2024/03/22 04:21:44;;;;;;;6.30;2.60;;;9.40;99.90;;;;;;5137306;27;20426;-58
2024/03/22 04:24:12;;;;;;;4.70;2.28;;;9.40;99.90;;;;;;5137232;27;20487;-58
2024/03/22 04:26:39;;;;;;;3.70;2.37;;;9.40;99.90;;;;;;5137418;27;20475;-58
2024/03/22 04:29:05;;;;;;;4.10;2.10;;;9.50;99.90;;;;;;5137906;27;20422;-57
2024/03/22 04:31:31;;;;;;;5.47;2.60;;;9.50;99.90;;;;;;5137152;27;20422;-58
2024/03/22 04:33:58;;;;;;;4.20;2.10;;;9.50;99.90;;;;;;5136701;27;20422;-58
2024/03/22 04:36:24;;;;;;;4.30;2.45;;;9.60;99.90;;;;;;5137520;27;20498;-59
2024/03/22 04:38:51;;;;;;;3.70;2.30;;;9.60;99.90;;;;;;5137540;27;20414;-59
2024/03/22 04:41:20;;;;;;;2.90;1.70;;;9.70;99.90;;;;;;5137962;27;20422;-59
2024/03/22 04:43:47;;;;;;;3.90;1.70;;;9.70;99.90;;;;;;5136848;28;20483;-59
2024/03/22 04:46:14;;;;;;;4.57;1.52;;;9.80;99.90;;;;;;5131618;28;20427;-59
2024/03/22 04:48:40;;;;;;;4.00;1.63;;;9.80;99.90;;;;;;5125287;27;20423;-59
2024/03/22 04:51:07;;;;;;;2.20;1.50;;;9.90;99.90;;;;;;5141231;27;20987;-59
2024/03/22 04:53:33;;;;;;;4.20;1.92;;;9.90;99.90;;;;;;5141118;27;20820;-59
2024/03/22 04:56:00;;;;;;;4.90;2.03;;;9.90;99.90;;;;;;5139391;27;20429;-59
2024/03/22 04:58:27;;;;;;;2.85;1.70;;;9.90;99.90;;;;;;5140952;27;20479;-59
2024/03/22 05:00:58;;;;;;;3.50;1.50;;;10.00;99.90;;;;;;5141353;27;20440;-59
2024/03/22 05:03:24;;;;;;;2.85;1.58;;;10.00;99.90;;;;;;5141386;27;20803;-60
2024/03/22 05:05:51;;;;;;;2.20;1.50;;;10.00;99.90;;;;;;5140801;27;20467;-59
2024/03/22 05:08:17;;;;;;;3.95;1.60;;;10.00;99.90;;;;;;5140987;27;20407;-59
2024/03/22 05:10:44;;;;;;;4.20;1.60;;;10.00;99.90;;;;;;5140255;27;20475;-59
2024/03/22 05:13:10;;;;;;;2.85;1.60;;;10.10;99.90;;;;;;5139864;27;20483;-59
2024/03/22 05:15:38;;;;;;;2.97;1.60;;;10.10;99.90;;;;;;5141209;27;20418;-59
2024/03/22 05:18:05;;;;;;;2.13;1.33;;;10.10;99.90;;;;;;5140586;27;20746;-59
2024/03/22 05:20:32;;;;;;;2.50;1.40;;;10.10;99.90;;;;;;5141713;27;20497;-59
2024/03/22 05:22:58;;;;;;;2.95;1.30;;;10.00;99.90;;;;;;5141558;27;20475;-59
2024/03/22 05:25:25;;;;;;;3.30;1.40;;;10.00;99.90;;;;;;5141118;27;20422;-59
2024/03/22 05:27:52;;;;;;;2.70;1.30;;;10.00;99.90;;;;;;5141199;27;20429;-59
2024/03/22 05:30:19;;;;;;;2.40;1.60;;;10.00;99.90;;;;;;5141017;27;20426;-59
2024/03/22 05:32:46;;;;;;;3.33;1.30;;;9.90;99.90;;;;;;5140768;27;20475;-57
2024/03/22 05:35:13;;;;;;;2.90;1.30;;;10.00;99.90;;;;;;5140928;27;20410;-58
2024/03/22 05:37:39;;;;;;;2.97;1.20;;;10.00;99.90;;;;;;5141168;27;20430;-58
2024/03/22 05:40:08;;;;;;;2.20;1.20;;;10.10;99.90;;;;;;5140281;27;20790;-58
2024/03/22 05:42:35;;;;;;;2.60;1.20;;;10.10;99.90;;;;;;5140699;27;20444;-57
2024/03/22 05:45:02;;;;;;;2.10;1.00;;;10.30;99.90;;;;;;5122257;27;20493;-58
2024/03/22 05:47:30;;;;;;;4.20;1.40;;;10.30;99.90;;;;;;5135381;27;20414;-58
2024/03/22 05:49:58;;;;;;;2.70;1.40;;;10.40;99.90;;;;;;5140099;27;20426;-58
2024/03/22 05:52:25;;;;;;;3.35;1.50;;;10.40;99.90;;;;;;5140586;27;20437;-58
2024/03/22 05:54:51;;;;;;;2.92;1.30;;;10.40;99.90;;;;;;5140445;27;20410;-58
2024/03/22 05:57:18;;;;;;;2.28;1.40;;;10.40;99.90;;;;;;5140733;27;20411;-58
2024/03/22 05:59:44;;;;;;;4.10;1.55;;;10.30;99.90;;;;;;5139605;27;20414;-56
2024/03/22 06:02:11;;;;;;;3.45;1.60;;;10.30;99.90;;;;;;5130226;27;20497;-56
2024/03/22 06:04:37;;;;;;;2.30;1.52;;;10.30;99.90;;;;;;5131542;27;20500;-58
2024/03/22 06:07:06;;;;;;;4.00;1.50;;;10.40;99.90;;;;;;5120149;27;20423;-58
2024/03/22 06:09:37;;;;;;;2.50;1.40;;;10.30;99.90;;;;;;5136400;27;20462;-58
2024/03/22 06:12:05;;;;;;;2.88;1.50;;;10.40;99.90;;;;;;5118520;28;20698;-57
2024/03/22 06:14:32;;;;;;;2.90;1.70;;;10.30;99.90;;;;;;5118775;28;20744;-56
2024/03/22 06:16:59;;;;;;;2.88;1.33;;;10.20;99.90;;;;;;5119631;28;20432;-58
2024/03/22 06:19:25;;;;;;;5.10;1.60;;;10.30;99.90;;;;;;5134554;27;20479;-58
2024/03/22 06:21:52;;;;;;;2.95;1.80;;;10.30;99.90;;;;;;5125734;27;20420;-58
2024/03/22 06:24:20;;;;;;;2.50;1.40;;;10.20;99.90;;;;;;5130370;27;20680;-57
2024/03/22 06:26:47;;;;;;;3.60;1.50;;;10.30;99.90;;;;;;5118987;27;20440;-57
2024/03/22 06:29:13;;;;;;;3.70;2.20;;;10.30;99.90;;;;;;5118749;27;20874;-57
2024/03/22 06:31:40;;;;;;;4.15;2.00;;;10.40;99.90;;;;;;5122626;27;20434;-58
2024/03/22 06:34:05;;;;;;;4.00;1.80;;;10.50;99.90;;;;;;5124707;27;20910;-57
2024/03/22 06:36:33;;;;;;;4.40;1.83;;;10.30;99.90;;;;;;5117072;28;20420;-57
2024/03/22 06:38:59;;;;;;;3.22;2.05;;;10.30;99.90;;;;;;5117921;28;20522;-59
2024/03/22 06:41:28;;;;;;;5.78;2.40;;;10.20;99.90;;;;;;5116817;28;20434;-58
2024/03/22 06:43:54;;;;;;;5.77;2.90;;;10.30;99.90;;;;;;5116371;28;20756;-57
2024/03/22 06:46:22;;;;;;;4.40;1.83;;;10.30;99.90;;;;;;5122525;27;20540;-60
2024/03/22 06:48:48;;;;;;;4.40;2.25;;;10.40;99.90;;;;;;5134661;27;20499;-58
2024/03/22 06:51:15;;;;;;;4.30;3.20;;;10.50;99.90;;;;;;5138728;27;20414;-58
2024/03/22 06:53:41;;;;;;;4.97;2.80;;;10.50;99.90;;;;;;5132993;27;20410;-58
2024/03/22 06:56:11;;;;;;;5.57;2.85;;;10.60;99.90;;;;;;5124047;27;20411;-57
2024/03/22 06:58:40;;;;;;;5.80;2.63;;;10.60;99.90;;;;;;5122353;27;20872;-58
2024/03/22 07:01:06;;;;;;;6.55;2.90;;;10.60;99.90;;;;;;5122348;27;20482;-58
2024/03/22 07:03:33;;;;;;;4.63;3.42;;;10.70;99.90;;;;;;5129577;27;20511;-56
2024/03/22 07:05:59;;;;;;;5.25;3.47;;;10.70;99.90;;;;;;5121464;27;20501;-58
2024/03/22 07:08:26;;;;;;;3.65;2.78;;;10.70;99.90;;;;;;5120699;27;20501;-57
2024/03/22 07:10:53;;;;;;;5.27;2.73;;;10.80;99.90;;;;;;5121072;27;20765;-58
2024/03/22 07:13:20;;;;;;;4.97;2.80;;;10.80;99.90;;;;;;5128069;27;20458;-58
2024/03/22 07:15:47;;;;;;;8.47;6.13;;;10.80;99.90;;;;;;5124943;27;20426;-58
2024/03/22 07:18:14;;;;;;;6.30;3.15;;;10.90;99.90;;;;;;5124961;27;20470;-59
2024/03/22 07:20:41;;;;;;;4.30;2.20;;;11.00;99.90;;;;;;5115810;28;20637;-58
2024/03/22 07:23:08;;;;;;;3.83;2.45;;;11.20;99.90;;;;;;5117126;27;20418;-58
2024/03/22 07:25:34;;;;;;;7.57;2.60;;;11.40;99.90;;;;;;5122485;27;20506;-58
2024/03/22 07:28:01;;;;;;;3.65;2.25;;;11.50;99.90;;;;;;5116934;27;20423;-58
2024/03/22 07:30:27;;;;;;;4.80;2.30;;;11.70;99.90;;;;;;5132879;27;20456;-58
2024/03/22 07:32:56;;;;;;;3.47;2.40;;;11.90;99.90;;;;;;5119267;27;20915;-57
2024/03/22 07:35:22;;;;;;;3.60;1.45;;;12.00;99.90;;;;;;5130338;27;20414;-58
2024/03/22 07:37:49;;;;;;;3.00;1.50;;;12.00;99.90;;;;;;5132356;27;20431;-58
2024/03/22 07:40:15;;;;;;;2.40;1.55;;;12.00;99.90;;;;;;5130798;27;20426;-58
2024/03/22 07:42:42;;;;;;;3.00;1.50;;;12.10;99.90;;;;;;5136737;27;20480;-58
2024/03/22 07:45:10;;;;;;;3.72;1.55;;;12.20;99.90;;;;;;5132378;27;20498;-58
2024/03/22 07:47:37;;;;;;;2.70;1.50;;;12.30;99.90;;;;;;5123156;27;20423;-59
2024/03/22 07:50:06;;;;;;;2.15;1.30;;;12.50;99.90;;;;;;5132070;27;20565;-58
2024/03/22 07:52:33;;;;;;;2.50;1.50;;;12.60;99.90;;;;;;5132281;27;20428;-58
2024/03/22 07:54:59;;;;;;;4.18;1.60;;;12.70;99.90;;;;;;5134192;27;20804;-57
2024/03/22 07:57:26;;;;;;;2.22;1.27;;;12.80;99.90;;;;;;5134856;27;20487;-56
2024/03/22 07:59:52;;;;;;;2.50;1.10;;;13.00;99.90;;;;;;5136475;27;20774;-59
2024/03/22 08:02:19;;;;;;;1.90;1.30;;;13.20;99.90;;;;;;5122838;27;20423;-58
2024/03/22 08:04:45;;;;;;;3.05;1.40;;;13.30;99.90;;;;;;5125564;27;20501;-58
2024/03/22 08:07:14;;;;;;;3.72;1.70;;;13.40;99.90;;;;;;5126744;27;20432;-58
2024/03/22 08:09:40;;;;;;;2.70;1.40;;;13.50;99.90;;;;;;5133125;27;20431;-59
2024/03/22 08:12:07;;;;;;;2.70;1.20;;;13.60;99.90;;;;;;5129206;27;20436;-59
2024/03/22 08:14:33;;;;;;;2.33;1.40;;;13.80;99.90;;;;;;5123442;27;20415;-59
2024/03/22 08:17:00;;;;;;;3.10;1.52;;;14.00;99.90;;;;;;5126946;27;20426;-59
2024/03/22 08:19:27;;;;;;;2.70;1.30;;;14.20;99.90;;;;;;5118234;27;20497;-58
2024/03/22 08:21:53;;;;;;;2.28;1.20;;;14.30;99.90;;;;;;5126289;27;20447;-59
2024/03/22 08:24:22;;;;;;;2.03;1.10;;;14.30;99.90;;;;;;5127181;27;20690;-59
2024/03/22 08:26:48;;;;;;;2.30;1.00;;;14.50;99.90;;;;;;5114759;27;20414;-59
2024/03/22 08:29:15;;;;;;;1.70;1.10;;;14.70;99.90;;;;;;5122793;27;20423;-59
2024/03/22 08:31:41;;;;;;;2.47;1.10;;;14.90;99.90;;;;;;5132129;27;20816;-60
2024/03/22 08:34:09;;;;;;;1.40;0.90;;;15.10;99.90;;;;;;5125185;27;20438;-60
2024/03/22 08:36:36;;;;;;;1.80;1.00;;;15.40;99.90;;;;;;5132895;27;20481;-59
2024/03/22 08:39:05;;;;;;;1.40;1.00;;;15.60;99.90;;;;;;5128367;27;20426;-59
2024/03/22 08:41:32;;;;;;;2.88;0.98;;;15.70;99.90;;;;;;5132263;27;20757;-59
2024/03/22 08:43:59;;;;;;;1.88;1.00;;;15.60;99.90;;;;;;5133837;28;20790;-59
2024/03/22 08:46:26;;;;;;;2.50;1.00;;;15.70;99.90;;;;;;5132815;28;20701;-59
2024/03/22 08:48:53;;;;;;;1.38;0.90;;;15.90;99.90;;;;;;5126675;28;20434;-59
2024/03/22 08:51:19;;;;;;;2.30;0.80;;;16.10;99.90;;;;;;5127706;28;20711;-60
2024/03/22 08:53:46;;;;;;;1.50;0.90;;;16.20;99.90;;;;;;5125788;28;20412;-60
2024/03/22 08:56:12;;;;;;;2.70;1.20;;;16.10;99.90;;;;;;5124484;28;20412;-59
2024/03/22 08:58:41;;;;;;;2.10;1.10;;;16.10;99.90;;;;;;5127149;28;20916;-59
2024/03/22 09:01:09;;;;;;;1.77;0.90;;;16.00;99.90;;;;;;5133899;28;20418;-59
2024/03/22 09:03:36;;;;;;;2.10;0.90;;;16.00;99.90;;;;;;5133599;28;20444;-59
2024/03/22 09:06:03;;;;;;;1.20;0.80;;;16.10;99.90;;;;;;5135623;28;20453;-59
2024/03/22 09:08:30;;;;;;;1.90;1.10;;;16.20;99.90;;;;;;5131477;28;20509;-60
2024/03/22 09:10:56;;;;;;;1.90;1.10;;;16.20;99.90;;;;;;5135163;28;21029;-60
2024/03/22 09:13:23;;;;;;;1.60;1.00;;;16.20;99.90;;;;;;5135530;28;20429;-60
2024/03/22 09:15:56;;;;;;;1.60;0.80;;;16.30;99.90;;;;;;5135308;28;20834;-60
2024/03/22 09:18:23;;;;;;;1.40;0.80;;;16.60;99.90;;;;;;5131338;28;20498;-60
2024/03/22 09:20:49;;;;;;;2.40;0.90;;;16.70;99.90;;;;;;5129187;28;20808;-59
2024/03/22 09:23:16;;;;;;;2.00;0.80;;;16.50;99.90;;;;;;5122479;28;20414;-61
2024/03/22 09:25:42;;;;;;;1.80;0.85;;;16.50;99.90;;;;;;5127460;28;20504;-59
2024/03/22 09:28:09;;;;;;;1.20;0.80;;;16.50;99.90;;;;;;5125889;28;20426;-59
2024/03/22 09:30:38;;;;;;;1.60;0.80;;;16.70;99.90;;;;;;5131533;28;20494;-59
2024/03/22 09:33:07;;;;;;;2.40;0.90;;;16.80;99.90;;;;;;5117952;28;20442;-60
2024/03/22 09:35:34;;;;;;;1.00;0.70;;;16.80;99.90;;;;;;5112252;27;20416;-60
2024/03/22 09:38:01;;;;;;;1.30;1.00;;;16.90;99.90;;;;;;5117912;28;20423;-59
2024/03/22 09:40:27;;;;;;;1.10;0.70;;;17.00;99.90;;;;;;5123208;28;20418;-60
2024/03/22 09:42:54;;;;;;;1.60;0.70;;;17.10;99.90;;;;;;5118220;28;20879;-60
2024/03/22 09:45:20;;;;;;;1.50;0.80;;;17.30;99.90;;;;;;5127647;28;20502;-60
2024/03/22 09:47:49;;;;;;;1.10;0.60;;;17.30;99.90;;;;;;5129478;28;20412;-59
2024/03/22 09:50:16;;;;;;;1.70;0.77;;;17.40;99.90;;;;;;5132412;28;20852;-60
2024/03/22 09:52:45;;;;;;;1.10;0.70;;;17.50;99.90;;;;;;5130559;28;20512;-60
2024/03/22 09:55:11;;;;;;;1.40;0.70;;;17.50;99.90;;;;;;5117256;28;20469;-60
2024/03/22 09:57:40;;;;;;;1.20;0.70;;;17.60;99.90;;;;;;5119453;28;20459;-60
2024/03/22 10:00:07;;;;;;;1.35;0.70;;;17.90;99.90;;;;;;5138021;28;20430;-60
2024/03/22 10:02:35;;;;;;;1.27;0.70;;;18.10;99.90;;;;;;5137274;28;20417;-60
2024/03/22 10:05:02;;;;;;;1.00;0.65;;;18.40;99.90;;;;;;5117279;28;20898;-60
2024/03/22 10:07:30;;;;;;;1.60;0.65;;;18.40;99.90;;;;;;5133579;28;20744;-60
2024/03/22 10:09:58;;;;;;;1.10;0.70;;;18.70;99.90;;;;;;5095633;27;1146157;-60
2024/03/22 10:12:26;;;;;;;0.90;0.60;;;19.10;99.90;;;;;;5123941;27;20901;-60
2024/03/22 10:14:53;;;;;;;2.00;0.60;;;19.20;99.90;;;;;;5128122;27;20499;-60
2024/03/22 10:17:20;;;;;;;0.90;0.60;;;19.10;99.90;;;;;;5116641;28;20416;-60
2024/03/22 10:19:48;;;;;;;2.28;0.80;;;18.90;99.90;;;;;;5122077;27;20424;-60
2024/03/22 10:22:17;;;;;;;1.40;0.60;;;18.80;99.90;;;;;;5134802;27;20772;-60
2024/03/22 10:24:44;;;;;;;1.43;0.70;;;18.80;99.90;;;;;;5123892;27;20517;-60
2024/03/22 10:27:12;;;;;;;1.15;0.60;;;19.00;99.90;;;;;;5120796;27;20489;-61
2024/03/22 10:29:39;;;;;;;1.80;0.70;;;18.90;99.20;;;;;;5125000;27;20424;-60
2024/03/22 10:32:08;;;;;;;1.00;0.60;;;18.70;99.30;;;;;;5120246;27;20431;-61
2024/03/22 10:34:35;;;;;;;1.60;0.70;;;18.50;99.90;;;;;;5114516;27;20426;-61
2024/03/22 10:37:03;;;;;;;1.20;0.70;;;18.50;99.90;;;;;;5120098;27;20422;-60
2024/03/22 10:39:31;;;;;;;1.50;0.70;;;18.60;99.90;;;;;;5122176;27;20436;-59
2024/03/22 10:41:59;;;;;;;1.27;0.60;;;18.60;99.90;;;;;;5122861;27;20485;-60
2024/03/22 10:44:25;;;;;;;1.45;0.70;;;18.50;99.90;;;;;;5122026;27;20439;-60
2024/03/22 10:46:56;;;;;;;1.30;0.65;;;18.50;98.90;;;;;;5127365;27;20511;-59
2024/03/22 10:49:23;;;;;;;1.30;0.60;;;18.60;99.30;;;;;;5133297;27;20733;-59
2024/03/22 10:51:56;;;;;;;1.15;0.60;;;18.80;99.70;;;;;;5124006;27;20471;-60
2024/03/22 10:54:28;;;;;;;1.80;0.70;;;19.20;99.80;;;;;;5120063;27;20428;-59
2024/03/22 10:56:56;;;;;;;1.10;0.70;;;19.50;98.40;;;;;;5115742;28;20477;-59
2024/03/22 10:59:23;;;;;;;1.67;0.70;;;19.30;96.70;;;;;;5127700;27;20426;-60
2024/03/22 11:01:51;;;;;;;0.95;0.60;;;19.40;98.00;;;;;;5121724;27;20432;-60
2024/03/22 11:04:19;;;;;;;1.80;0.70;;;19.60;96.20;;;;;;5129056;27;20456;-60
2024/03/22 11:06:49;;;;;;;3.58;0.70;;;19.60;95.20;;;;;;5123089;27;20849;-60
2024/03/22 11:09:21;;;;;;;1.88;0.70;;;19.20;96.10;;;;;;5116849;28;20439;-60
2024/03/22 11:11:48;;;;;;;1.08;0.70;;;19.50;97.50;;;;;;5119259;27;20706;-60
2024/03/22 11:14:14;;;;;;;1.00;0.70;;;19.90;97.00;;;;;;5117377;27;20420;-60
2024/03/22 11:16:45;;;;;;;3.50;0.85;;;20.20;95.80;;;;;;5117622;28;20416;-60
2024/03/22 11:19:11;;;;;;;1.10;0.70;;;20.30;95.40;;;;;;5119331;27;20775;-60
2024/03/22 11:21:38;;;;;;;1.10;0.70;;;20.40;94.60;;;;;;5122449;27;20477;-60
2024/03/22 11:24:05;;;;;;;1.58;0.80;;;20.70;94.40;;;;;;5128491;27;20522;-61
2024/03/22 11:26:32;;;;;;;2.83;0.80;;;20.80;93.20;;;;;;5117173;27;20424;-60
2024/03/22 11:28:59;;;;;;;1.13;0.60;;;20.90;93.00;;;;;;5136460;27;20754;-60
2024/03/22 11:31:27;;;;;;;1.83;0.70;;;21.00;90.20;;;;;;5128304;27;20418;-60
2024/03/22 11:33:55;;;;;;;1.88;0.68;;;20.70;89.80;;;;;;5136313;27;20426;-60
2024/03/22 11:36:22;;;;;;;1.40;0.60;;;20.60;88.60;;;;;;5135632;27;20824;-61
2024/03/22 11:38:49;;;;;;;1.00;0.70;;;20.40;90.80;;;;;;5135119;27;20411;-60
2024/03/22 11:41:18;;;;;;;1.70;0.70;;;20.60;90.90;;;;;;5123862;27;20483;-60
2024/03/22 11:43:46;;;;;;;0.90;0.60;;;20.90;90.10;;;;;;5121089;27;20923;-59
2024/03/22 11:46:13;;;;;;;1.40;0.70;;;21.30;90.70;;;;;;5117189;28;20474;-60
2024/03/22 11:48:40;;;;;;;0.90;0.60;;;21.60;87.90;;;;;;5129057;27;20694;-60
2024/03/22 11:51:10;;;;;;;1.10;0.60;;;21.80;88.80;;;;;;5137434;27;20449;-59
2024/03/22 11:53:37;;;;;;;1.00;0.60;;;21.90;88.80;;;;;;5133790;27;20824;-59
2024/03/22 11:56:05;;;;;;;1.25;0.80;;;21.80;89.40;;;;;;5135409;27;20735;-60
2024/03/22 11:58:31;;;;;;;1.27;0.80;;;22.00;88.10;;;;;;5117768;27;20718;-60
2024/03/22 12:00:58;;;;;;;0.95;0.60;;;21.90;87.10;;;;;;5124801;27;20505;-60
2024/03/22 12:03:24;;;;;;;1.60;0.70;;;21.90;89.10;;;;;;5133875;27;20462;-60
2024/03/22 12:05:55;;;;;;;1.27;0.60;;;22.00;84.90;;;;;;5124702;27;20422;-60
2024/03/22 12:08:22;;;;;;;1.90;0.60;;;21.80;80.70;;;;;;5127133;27;20497;-60
2024/03/22 12:10:49;;;;;;;1.70;0.60;;;21.00;80.40;;;;;;5135104;27;21007;-60
2024/03/22 12:13:15;;;;;;;0.80;0.70;;;20.90;86.20;;;;;;5136611;27;20422;-60
2024/03/22 12:15:42;;;;;;;1.33;0.60;;;21.10;87.60;;;;;;5137529;27;20471;-59
2024/03/22 12:18:08;;;;;;;2.10;1.63;;;21.30;83.50;;;;;;5137063;27;20955;-59
2024/03/22 12:20:35;;;;;;;1.70;0.50;;;21.40;80.00;;;;;;5136135;27;20415;-58
2024/03/22 12:23:01;;;;;;;0.80;0.50;;;21.20;76.80;;;;;;5136194;27;20411;-58
2024/03/22 12:25:29;;;;;;;2.80;1.00;;;21.30;76.80;;;;;;5135841;27;20484;-58
2024/03/22 12:27:55;;;;;;;1.10;0.40;;;21.40;77.80;;;;;;5135479;27;20778;-58
2024/03/22 12:30:23;;;;;;;0.70;0.40;;;21.40;72.90;;;;;;5135892;27;20414;-58
2024/03/22 12:32:49;;;;;;;0.70;0.40;;;21.20;71.30;;;;;;5136036;27;20406;-60
2024/03/22 12:35:16;;;;;;;0.80;0.50;;;20.90;71.50;;;;;;5137431;27;20418;-60
2024/03/22 12:37:42;;;;;;;1.10;0.40;;;20.50;73.10;;;;;;5135328;27;20487;-59
2024/03/22 12:40:11;;;;;;;0.80;0.50;;;20.20;77.00;;;;;;5136359;27;20423;-59
2024/03/22 12:42:39;;;;;;;0.60;0.40;;;19.90;75.30;;;;;;5134873;27;20978;-59
2024/03/22 12:45:07;;;;;;;1.20;0.50;;;20.10;79.50;;;;;;5135134;27;20473;-60
2024/03/22 12:47:33;;;;;;;1.40;0.50;;;20.40;75.40;;;;;;5134830;28;20418;-59
2024/03/22 12:50:00;;;;;;;0.80;0.50;;;20.50;77.30;;;;;;5135367;28;20576;-60